sensor_id;sensor_type;location;lat;lon;timestamp;P1;durP1;ratioP1;P2;durP2;ratioP2
23175;SDS011;19910;42.652;23.332;2022-11-23T00:00:30;10.98;;;5.82;;
23175;SDS011;19910;42.652;23.332;2022-11-23T00:02:57;8.40;;;5.00;;
23175;SDS011;19910;42.652;23.332;2022-11-23T00:05:25;8.68;;;4.75;;
23175;SDS011;19910;42.652;23.332;2022-11-23T00:07:52;4.32;;;3.38;;
23175;SDS011;19910;42.652;23.332;2022-11-23T00:10:19;6.18;;;3.85;;
23175;SDS011;19910;42.652;23.332;2022-11-23T00:12:47;7.97;;;3.80;;
23175;SDS011;19910;42.652;23.332;2022-11-23T00:15:14;5.82;;;3.33;;
23175;SDS011;19910;42.652;23.332;2022-11-23T00:17:41;7.40;;;3.17;;
23175;SDS011;19910;42.652;23.332;2022-11-23T00:20:08;5.53;;;3.47;;
23175;SDS011;19910;42.652;23.332;2022-11-23T00:22:35;4.40;;;2.58;;
23175;SDS011;19910;42.652;23.332;2022-11-23T00:25:02;5.97;;;3.20;;
23175;SDS011;19910;42.652;23.332;2022-11-23T00:27:29;6.53;;;3.83;;
23175;SDS011;19910;42.652;23.332;2022-11-23T00:29:57;6.53;;;3.13;;
23175;SDS011;19910;42.652;23.332;2022-11-23T00:32:24;5.15;;;3.03;;
23175;SDS011;19910;42.652;23.332;2022-11-23T00:34:51;6.93;;;4.13;;
23175;SDS011;19910;42.652;23.332;2022-11-23T00:37:18;6.25;;;3.67;;
23175;SDS011;19910;42.652;23.332;2022-11-23T00:39:45;6.97;;;4.10;;
23175;SDS011;19910;42.652;23.332;2022-11-23T00:42:11;5.22;;;3.35;;
23175;SDS011;19910;42.652;23.332;2022-11-23T00:44:38;5.40;;;3.15;;
23175;SDS011;19910;42.652;23.332;2022-11-23T00:47:06;7.80;;;3.97;;
23175;SDS011;19910;42.652;23.332;2022-11-23T00:49:33;4.75;;;3.08;;
23175;SDS011;19910;42.652;23.332;2022-11-23T00:52:00;4.30;;;3.25;;
23175;SDS011;19910;42.652;23.332;2022-11-23T00:54:26;6.25;;;3.67;;
23175;SDS011;19910;42.652;23.332;2022-11-23T00:56:53;6.03;;;2.78;;
23175;SDS011;19910;42.652;23.332;2022-11-23T00:59:20;5.25;;;2.83;;
23175;SDS011;19910;42.652;23.332;2022-11-23T01:01:47;4.78;;;3.17;;
23175;SDS011;19910;42.652;23.332;2022-11-23T01:04:15;7.20;;;3.60;;
23175;SDS011;19910;42.652;23.332;2022-11-23T01:06:42;6.32;;;3.05;;
23175;SDS011;19910;42.652;23.332;2022-11-23T01:09:11;9.55;;;2.95;;
23175;SDS011;19910;42.652;23.332;2022-11-23T01:11:40;5.32;;;3.35;;
23175;SDS011;19910;42.652;23.332;2022-11-23T01:14:07;9.13;;;3.53;;
23175;SDS011;19910;42.652;23.332;2022-11-23T01:16:34;5.80;;;3.20;;
23175;SDS011;19910;42.652;23.332;2022-11-23T01:19:03;4.72;;;3.00;;
23175;SDS011;19910;42.652;23.332;2022-11-23T01:21:34;5.45;;;3.30;;
23175;SDS011;19910;42.652;23.332;2022-11-23T01:24:02;3.30;;;2.63;;
23175;SDS011;19910;42.652;23.332;2022-11-23T01:26:30;4.70;;;2.75;;
23175;SDS011;19910;42.652;23.332;2022-11-23T01:28:57;4.10;;;2.85;;
23175;SDS011;19910;42.652;23.332;2022-11-23T01:31:24;5.80;;;3.28;;
23175;SDS011;19910;42.652;23.332;2022-11-23T01:33:51;4.47;;;2.92;;
23175;SDS011;19910;42.652;23.332;2022-11-23T01:36:20;3.95;;;2.58;;
23175;SDS011;19910;42.652;23.332;2022-11-23T01:38:49;4.60;;;3.00;;
23175;SDS011;19910;42.652;23.332;2022-11-23T01:41:19;9.02;;;3.67;;
23175;SDS011;19910;42.652;23.332;2022-11-23T01:43:47;5.45;;;2.95;;
23175;SDS011;19910;42.652;23.332;2022-11-23T01:46:15;5.90;;;3.08;;
23175;SDS011;19910;42.652;23.332;2022-11-23T01:48:44;5.35;;;2.60;;
23175;SDS011;19910;42.652;23.332;2022-11-23T01:51:15;5.63;;;3.40;;
23175;SDS011;19910;42.652;23.332;2022-11-23T01:53:44;8.68;;;3.72;;
23175;SDS011;19910;42.652;23.332;2022-11-23T01:56:15;10.02;;;4.72;;
23175;SDS011;19910;42.652;23.332;2022-11-23T01:58:46;4.28;;;2.83;;
23175;SDS011;19910;42.652;23.332;2022-11-23T02:01:16;6.10;;;3.40;;
23175;SDS011;19910;42.652;23.332;2022-11-23T02:03:43;3.30;;;2.65;;
23175;SDS011;19910;42.652;23.332;2022-11-23T02:06:14;7.68;;;3.78;;
23175;SDS011;19910;42.652;23.332;2022-11-23T02:08:43;6.35;;;2.20;;
23175;SDS011;19910;42.652;23.332;2022-11-23T02:11:11;3.60;;;2.65;;
23175;SDS011;19910;42.652;23.332;2022-11-23T02:13:41;4.80;;;3.42;;
23175;SDS011;19910;42.652;23.332;2022-11-23T02:16:09;6.03;;;3.15;;
23175;SDS011;19910;42.652;23.332;2022-11-23T02:18:38;4.95;;;3.00;;
23175;SDS011;19910;42.652;23.332;2022-11-23T02:21:08;4.03;;;3.00;;
23175;SDS011;19910;42.652;23.332;2022-11-23T02:23:38;3.60;;;2.33;;
23175;SDS011;19910;42.652;23.332;2022-11-23T02:26:13;3.58;;;2.83;;
23175;SDS011;19910;42.652;23.332;2022-11-23T02:28:44;7.18;;;3.75;;
23175;SDS011;19910;42.652;23.332;2022-11-23T02:31:14;4.78;;;3.13;;
23175;SDS011;19910;42.652;23.332;2022-11-23T02:33:41;5.35;;;3.35;;
23175;SDS011;19910;42.652;23.332;2022-11-23T02:36:32;3.80;;;3.05;;
23175;SDS011;19910;42.652;23.332;2022-11-23T02:39:02;2.47;;;1.67;;
23175;SDS011;19910;42.652;23.332;2022-11-23T02:41:35;3.17;;;1.98;;
23175;SDS011;19910;42.652;23.332;2022-11-23T02:44:04;3.83;;;2.85;;
23175;SDS011;19910;42.652;23.332;2022-11-23T02:46:37;7.15;;;4.18;;
23175;SDS011;19910;42.652;23.332;2022-11-23T02:49:05;8.88;;;3.95;;
23175;SDS011;19910;42.652;23.332;2022-11-23T02:51:31;5.07;;;3.42;;
23175;SDS011;19910;42.652;23.332;2022-11-23T02:53:58;4.85;;;3.08;;
23175;SDS011;19910;42.652;23.332;2022-11-23T02:56:25;6.65;;;3.17;;
23175;SDS011;19910;42.652;23.332;2022-11-23T02:58:53;7.82;;;3.67;;
23175;SDS011;19910;42.652;23.332;2022-11-23T03:01:20;9.63;;;4.32;;
23175;SDS011;19910;42.652;23.332;2022-11-23T03:03:47;4.10;;;2.53;;
23175;SDS011;19910;42.652;23.332;2022-11-23T03:06:13;6.50;;;3.50;;
23175;SDS011;19910;42.652;23.332;2022-11-23T03:08:40;5.00;;;3.80;;
23175;SDS011;19910;42.652;23.332;2022-11-23T03:11:07;7.72;;;4.20;;
23175;SDS011;19910;42.652;23.332;2022-11-23T03:13:35;4.65;;;3.30;;
23175;SDS011;19910;42.652;23.332;2022-11-23T03:16:04;6.22;;;3.97;;
23175;SDS011;19910;42.652;23.332;2022-11-23T03:18:31;4.70;;;2.92;;
23175;SDS011;19910;42.652;23.332;2022-11-23T03:21:00;4.82;;;3.38;;
23175;SDS011;19910;42.652;23.332;2022-11-23T03:23:28;6.00;;;3.75;;
23175;SDS011;19910;42.652;23.332;2022-11-23T03:25:55;8.32;;;3.38;;
23175;SDS011;19910;42.652;23.332;2022-11-23T03:28:22;8.50;;;4.38;;
23175;SDS011;19910;42.652;23.332;2022-11-23T03:30:49;6.38;;;4.00;;
23175;SDS011;19910;42.652;23.332;2022-11-23T03:33:17;6.70;;;3.90;;
23175;SDS011;19910;42.652;23.332;2022-11-23T03:35:44;5.45;;;2.75;;
23175;SDS011;19910;42.652;23.332;2022-11-23T03:38:11;5.72;;;3.22;;
23175;SDS011;19910;42.652;23.332;2022-11-23T03:40:38;8.05;;;4.25;;
23175;SDS011;19910;42.652;23.332;2022-11-23T03:43:05;5.25;;;2.90;;
23175;SDS011;19910;42.652;23.332;2022-11-23T03:45:32;7.30;;;4.07;;
23175;SDS011;19910;42.652;23.332;2022-11-23T03:47:59;8.32;;;3.08;;
23175;SDS011;19910;42.652;23.332;2022-11-23T03:50:27;5.68;;;3.65;;
23175;SDS011;19910;42.652;23.332;2022-11-23T03:52:54;4.75;;;2.60;;
23175;SDS011;19910;42.652;23.332;2022-11-23T03:55:21;5.60;;;3.70;;
23175;SDS011;19910;42.652;23.332;2022-11-23T03:57:48;7.40;;;4.05;;
23175;SDS011;19910;42.652;23.332;2022-11-23T04:00:15;6.60;;;3.33;;
23175;SDS011;19910;42.652;23.332;2022-11-23T04:02:42;7.15;;;3.25;;
23175;SDS011;19910;42.652;23.332;2022-11-23T04:05:09;8.43;;;3.40;;
23175;SDS011;19910;42.652;23.332;2022-11-23T04:07:37;5.65;;;2.92;;
23175;SDS011;19910;42.652;23.332;2022-11-23T04:10:04;5.88;;;3.33;;
23175;SDS011;19910;42.652;23.332;2022-11-23T04:12:31;6.50;;;3.58;;
23175;SDS011;19910;42.652;23.332;2022-11-23T04:14:58;5.45;;;3.58;;
23175;SDS011;19910;42.652;23.332;2022-11-23T04:17:25;5.50;;;3.60;;
23175;SDS011;19910;42.652;23.332;2022-11-23T04:19:51;5.40;;;2.92;;
23175;SDS011;19910;42.652;23.332;2022-11-23T04:22:18;4.78;;;2.95;;
23175;SDS011;19910;42.652;23.332;2022-11-23T04:24:46;4.72;;;3.15;;
23175;SDS011;19910;42.652;23.332;2022-11-23T04:27:13;6.22;;;3.70;;
23175;SDS011;19910;42.652;23.332;2022-11-23T04:29:42;6.85;;;3.67;;
23175;SDS011;19910;42.652;23.332;2022-11-23T04:32:09;7.15;;;4.10;;
23175;SDS011;19910;42.652;23.332;2022-11-23T04:34:38;6.30;;;3.65;;
23175;SDS011;19910;42.652;23.332;2022-11-23T04:37:05;6.35;;;3.53;;
23175;SDS011;19910;42.652;23.332;2022-11-23T04:39:32;6.95;;;3.50;;
23175;SDS011;19910;42.652;23.332;2022-11-23T04:42:00;5.68;;;3.38;;
23175;SDS011;19910;42.652;23.332;2022-11-23T04:44:29;5.05;;;3.28;;
23175;SDS011;19910;42.652;23.332;2022-11-23T04:46:55;4.95;;;3.78;;
23175;SDS011;19910;42.652;23.332;2022-11-23T04:49:22;4.65;;;3.25;;
23175;SDS011;19910;42.652;23.332;2022-11-23T04:51:49;3.90;;;2.42;;
23175;SDS011;19910;42.652;23.332;2022-11-23T04:54:16;5.57;;;2.40;;
23175;SDS011;19910;42.652;23.332;2022-11-23T04:56:42;5.65;;;3.33;;
23175;SDS011;19910;42.652;23.332;2022-11-23T04:59:11;7.32;;;4.03;;
23175;SDS011;19910;42.652;23.332;2022-11-23T05:01:37;7.20;;;4.55;;
23175;SDS011;19910;42.652;23.332;2022-11-23T05:04:04;6.03;;;2.95;;
23175;SDS011;19910;42.652;23.332;2022-11-23T05:06:31;9.70;;;5.07;;
23175;SDS011;19910;42.652;23.332;2022-11-23T05:08:58;9.07;;;4.47;;
23175;SDS011;19910;42.652;23.332;2022-11-23T05:11:25;6.47;;;3.88;;
23175;SDS011;19910;42.652;23.332;2022-11-23T05:13:52;8.07;;;4.70;;
23175;SDS011;19910;42.652;23.332;2022-11-23T05:16:20;10.50;;;4.75;;
23175;SDS011;19910;42.652;23.332;2022-11-23T05:18:47;11.27;;;5.95;;
23175;SDS011;19910;42.652;23.332;2022-11-23T05:21:13;25.13;;;12.63;;
23175;SDS011;19910;42.652;23.332;2022-11-23T05:23:40;9.43;;;4.95;;
23175;SDS011;19910;42.652;23.332;2022-11-23T05:26:07;16.83;;;7.25;;
23175;SDS011;19910;42.652;23.332;2022-11-23T05:28:33;7.97;;;5.30;;
23175;SDS011;19910;42.652;23.332;2022-11-23T05:31:02;7.88;;;4.85;;
23175;SDS011;19910;42.652;23.332;2022-11-23T05:33:30;8.15;;;5.43;;
23175;SDS011;19910;42.652;23.332;2022-11-23T05:35:57;8.35;;;5.55;;
23175;SDS011;19910;42.652;23.332;2022-11-23T05:38:24;10.90;;;5.72;;
23175;SDS011;19910;42.652;23.332;2022-11-23T05:40:51;14.20;;;6.00;;
23175;SDS011;19910;42.652;23.332;2022-11-23T05:43:17;10.15;;;5.68;;
23175;SDS011;19910;42.652;23.332;2022-11-23T05:45:44;11.32;;;5.28;;
23175;SDS011;19910;42.652;23.332;2022-11-23T05:48:11;10.07;;;5.68;;
23175;SDS011;19910;42.652;23.332;2022-11-23T05:50:39;7.50;;;4.65;;
23175;SDS011;19910;42.652;23.332;2022-11-23T05:53:06;8.40;;;5.57;;
23175;SDS011;19910;42.652;23.332;2022-11-23T05:55:32;10.13;;;5.38;;
23175;SDS011;19910;42.652;23.332;2022-11-23T05:58:00;7.22;;;4.93;;
23175;SDS011;19910;42.652;23.332;2022-11-23T06:00:27;10.23;;;5.57;;
23175;SDS011;19910;42.652;23.332;2022-11-23T06:02:57;9.23;;;5.70;;
23175;SDS011;19910;42.652;23.332;2022-11-23T06:05:25;15.10;;;7.97;;
23175;SDS011;19910;42.652;23.332;2022-11-23T06:07:53;15.45;;;7.70;;
23175;SDS011;19910;42.652;23.332;2022-11-23T06:10:20;14.35;;;7.43;;
23175;SDS011;19910;42.652;23.332;2022-11-23T06:12:46;12.50;;;7.22;;
23175;SDS011;19910;42.652;23.332;2022-11-23T06:15:14;10.48;;;6.25;;
23175;SDS011;19910;42.652;23.332;2022-11-23T06:17:41;12.90;;;6.30;;
23175;SDS011;19910;42.652;23.332;2022-11-23T06:20:08;9.70;;;6.60;;
23175;SDS011;19910;42.652;23.332;2022-11-23T06:22:35;13.25;;;6.63;;
23175;SDS011;19910;42.652;23.332;2022-11-23T06:25:04;8.48;;;5.70;;
23175;SDS011;19910;42.652;23.332;2022-11-23T06:27:31;9.27;;;6.18;;
23175;SDS011;19910;42.652;23.332;2022-11-23T06:29:58;12.55;;;7.18;;
23175;SDS011;19910;42.652;23.332;2022-11-23T06:32:25;8.70;;;5.97;;
23175;SDS011;19910;42.652;23.332;2022-11-23T06:34:51;14.63;;;7.72;;
23175;SDS011;19910;42.652;23.332;2022-11-23T06:37:18;10.40;;;6.32;;
23175;SDS011;19910;42.652;23.332;2022-11-23T06:39:45;12.45;;;6.10;;
23175;SDS011;19910;42.652;23.332;2022-11-23T06:42:13;12.75;;;5.97;;
23175;SDS011;19910;42.652;23.332;2022-11-23T06:44:40;10.68;;;6.68;;
23175;SDS011;19910;42.652;23.332;2022-11-23T06:47:06;11.27;;;6.00;;
23175;SDS011;19910;42.652;23.332;2022-11-23T06:49:33;13.00;;;7.43;;
23175;SDS011;19910;42.652;23.332;2022-11-23T06:52:00;11.00;;;6.20;;
23175;SDS011;19910;42.652;23.332;2022-11-23T06:54:26;10.55;;;5.70;;
23175;SDS011;19910;42.652;23.332;2022-11-23T06:56:53;10.25;;;6.18;;
23175;SDS011;19910;42.652;23.332;2022-11-23T06:59:21;10.15;;;6.00;;
23175;SDS011;19910;42.652;23.332;2022-11-23T07:01:48;4.40;;;2.30;;
23175;SDS011;19910;42.652;23.332;2022-11-23T07:04:15;10.65;;;6.05;;
23175;SDS011;19910;42.652;23.332;2022-11-23T07:06:42;13.57;;;8.43;;
23175;SDS011;19910;42.652;23.332;2022-11-23T07:09:08;12.00;;;7.18;;
23175;SDS011;19910;42.652;23.332;2022-11-23T07:11:35;13.43;;;6.75;;
23175;SDS011;19910;42.652;23.332;2022-11-23T07:14:02;15.65;;;5.90;;
23175;SDS011;19910;42.652;23.332;2022-11-23T07:16:30;6.38;;;4.47;;
23175;SDS011;19910;42.652;23.332;2022-11-23T07:18:57;6.88;;;4.70;;
23175;SDS011;19910;42.652;23.332;2022-11-23T07:21:23;11.55;;;6.53;;
23175;SDS011;19910;42.652;23.332;2022-11-23T07:23:50;12.02;;;7.35;;
23175;SDS011;19910;42.652;23.332;2022-11-23T07:26:17;11.38;;;6.15;;
23175;SDS011;19910;42.652;23.332;2022-11-23T07:28:44;13.15;;;7.10;;
23175;SDS011;19910;42.652;23.332;2022-11-23T07:31:11;14.27;;;6.32;;
23175;SDS011;19910;42.652;23.332;2022-11-23T07:33:43;12.63;;;7.63;;
23175;SDS011;19910;42.652;23.332;2022-11-23T07:36:10;8.02;;;4.78;;
23175;SDS011;19910;42.652;23.332;2022-11-23T07:38:37;11.68;;;7.30;;
23175;SDS011;19910;42.652;23.332;2022-11-23T07:41:04;15.88;;;8.50;;
23175;SDS011;19910;42.652;23.332;2022-11-23T07:43:31;15.30;;;9.05;;
23175;SDS011;19910;42.652;23.332;2022-11-23T07:45:58;8.43;;;5.20;;
23175;SDS011;19910;42.652;23.332;2022-11-23T07:48:25;15.20;;;7.07;;
23175;SDS011;19910;42.652;23.332;2022-11-23T07:50:53;12.45;;;6.70;;
23175;SDS011;19910;42.652;23.332;2022-11-23T07:53:20;13.98;;;8.00;;
23175;SDS011;19910;42.652;23.332;2022-11-23T07:55:47;12.93;;;8.20;;
23175;SDS011;19910;42.652;23.332;2022-11-23T07:58:14;6.03;;;3.58;;
23175;SDS011;19910;42.652;23.332;2022-11-23T08:00:41;5.80;;;4.25;;
23175;SDS011;19910;42.652;23.332;2022-11-23T08:03:08;10.75;;;6.38;;
23175;SDS011;19910;42.652;23.332;2022-11-23T08:05:38;9.02;;;4.63;;
23175;SDS011;19910;42.652;23.332;2022-11-23T08:08:06;14.65;;;8.00;;
23175;SDS011;19910;42.652;23.332;2022-11-23T08:10:33;13.93;;;6.78;;
23175;SDS011;19910;42.652;23.332;2022-11-23T08:13:01;8.20;;;4.88;;
23175;SDS011;19910;42.652;23.332;2022-11-23T08:15:29;11.65;;;6.85;;
23175;SDS011;19910;42.652;23.332;2022-11-23T08:17:57;11.57;;;6.80;;
23175;SDS011;19910;42.652;23.332;2022-11-23T08:20:24;13.77;;;6.90;;
23175;SDS011;19910;42.652;23.332;2022-11-23T08:22:52;11.65;;;6.72;;
23175;SDS011;19910;42.652;23.332;2022-11-23T08:25:21;11.05;;;6.45;;
23175;SDS011;19910;42.652;23.332;2022-11-23T08:27:52;9.73;;;5.57;;
23175;SDS011;19910;42.652;23.332;2022-11-23T08:30:20;7.97;;;5.35;;
23175;SDS011;19910;42.652;23.332;2022-11-23T08:32:46;8.90;;;5.65;;
23175;SDS011;19910;42.652;23.332;2022-11-23T08:35:13;10.35;;;5.70;;
23175;SDS011;19910;42.652;23.332;2022-11-23T08:37:40;11.35;;;6.60;;
23175;SDS011;19910;42.652;23.332;2022-11-23T08:40:07;10.43;;;6.88;;
23175;SDS011;19910;42.652;23.332;2022-11-23T08:42:36;15.00;;;7.85;;
23175;SDS011;19910;42.652;23.332;2022-11-23T08:45:03;17.55;;;8.52;;
23175;SDS011;19910;42.652;23.332;2022-11-23T08:47:30;11.85;;;4.82;;
23175;SDS011;19910;42.652;23.332;2022-11-23T08:49:57;13.45;;;6.70;;
23175;SDS011;19910;42.652;23.332;2022-11-23T08:52:25;13.82;;;9.70;;
23175;SDS011;19910;42.652;23.332;2022-11-23T08:54:52;14.63;;;9.50;;
23175;SDS011;19910;42.652;23.332;2022-11-23T08:57:18;21.63;;;9.20;;
23175;SDS011;19910;42.652;23.332;2022-11-23T08:59:46;15.85;;;8.68;;
23175;SDS011;19910;42.652;23.332;2022-11-23T09:02:13;18.08;;;9.80;;
23175;SDS011;19910;42.652;23.332;2022-11-23T09:04:40;13.02;;;8.30;;
23175;SDS011;19910;42.652;23.332;2022-11-23T09:07:07;22.35;;;8.38;;
23175;SDS011;19910;42.652;23.332;2022-11-23T09:09:34;12.82;;;7.18;;
23175;SDS011;19910;42.652;23.332;2022-11-23T09:12:01;13.45;;;8.50;;
23175;SDS011;19910;42.652;23.332;2022-11-23T09:14:27;14.68;;;8.95;;
23175;SDS011;19910;42.652;23.332;2022-11-23T09:16:56;15.45;;;8.65;;
23175;SDS011;19910;42.652;23.332;2022-11-23T09:19:22;11.55;;;8.05;;
23175;SDS011;19910;42.652;23.332;2022-11-23T09:21:49;17.65;;;9.52;;
23175;SDS011;19910;42.652;23.332;2022-11-23T09:24:16;23.15;;;9.45;;
23175;SDS011;19910;42.652;23.332;2022-11-23T09:26:42;11.70;;;7.40;;
23175;SDS011;19910;42.652;23.332;2022-11-23T09:29:09;17.80;;;8.77;;
23175;SDS011;19910;42.652;23.332;2022-11-23T09:31:36;18.52;;;8.90;;
23175;SDS011;19910;42.652;23.332;2022-11-23T09:34:05;16.08;;;9.25;;
23175;SDS011;19910;42.652;23.332;2022-11-23T09:36:31;20.00;;;9.40;;
23175;SDS011;19910;42.652;23.332;2022-11-23T09:38:58;18.73;;;9.55;;
23175;SDS011;19910;42.652;23.332;2022-11-23T09:44:26;12.15;;;8.73;;
23175;SDS011;19910;42.652;23.332;2022-11-23T09:47:02;14.30;;;8.10;;
23175;SDS011;19910;42.652;23.332;2022-11-23T09:49:43;21.58;;;9.80;;
23175;SDS011;19910;42.652;23.332;2022-11-23T09:52:19;15.48;;;8.85;;
23175;SDS011;19910;42.652;23.332;2022-11-23T09:54:48;17.58;;;9.35;;
23175;SDS011;19910;42.652;23.332;2022-11-23T09:57:20;27.02;;;14.85;;
23175;SDS011;19910;42.652;23.332;2022-11-23T09:59:53;23.35;;;11.63;;
23175;SDS011;19910;42.652;23.332;2022-11-23T10:02:24;17.88;;;11.07;;
23175;SDS011;19910;42.652;23.332;2022-11-23T10:04:55;19.10;;;9.70;;
23175;SDS011;19910;42.652;23.332;2022-11-23T10:07:38;15.13;;;8.07;;
23175;SDS011;19910;42.652;23.332;2022-11-23T10:10:19;15.38;;;10.32;;
23175;SDS011;19910;42.652;23.332;2022-11-23T10:13:00;17.98;;;9.82;;
23175;SDS011;19910;42.652;23.332;2022-11-23T10:15:37;12.35;;;7.82;;
23175;SDS011;19910;42.652;23.332;2022-11-23T10:18:17;16.00;;;8.25;;
23175;SDS011;19910;42.652;23.332;2022-11-23T10:20:55;22.52;;;10.35;;
23175;SDS011;19910;42.652;23.332;2022-11-23T10:23:41;16.45;;;8.18;;
23175;SDS011;19910;42.652;23.332;2022-11-23T10:26:18;15.25;;;10.15;;
23175;SDS011;19910;42.652;23.332;2022-11-23T10:28:46;12.77;;;7.03;;
23175;SDS011;19910;42.652;23.332;2022-11-23T10:31:15;10.32;;;5.47;;
23175;SDS011;19910;42.652;23.332;2022-11-23T10:33:46;11.75;;;6.72;;
23175;SDS011;19910;42.652;23.332;2022-11-23T10:36:20;16.55;;;7.25;;
23175;SDS011;19910;42.652;23.332;2022-11-23T10:38:48;16.52;;;8.35;;
23175;SDS011;19910;42.652;23.332;2022-11-23T10:41:18;11.75;;;7.47;;
23175;SDS011;19910;42.652;23.332;2022-11-23T10:43:46;13.60;;;7.82;;
23175;SDS011;19910;42.652;23.332;2022-11-23T10:46:23;12.43;;;7.32;;
23175;SDS011;19910;42.652;23.332;2022-11-23T10:48:53;13.40;;;7.50;;
23175;SDS011;19910;42.652;23.332;2022-11-23T10:51:25;13.85;;;7.18;;
23175;SDS011;19910;42.652;23.332;2022-11-23T10:53:56;13.65;;;7.78;;
23175;SDS011;19910;42.652;23.332;2022-11-23T10:56:26;11.55;;;6.47;;
23175;SDS011;19910;42.652;23.332;2022-11-23T10:58:53;11.82;;;7.55;;
23175;SDS011;19910;42.652;23.332;2022-11-23T11:01:21;10.68;;;6.22;;
23175;SDS011;19910;42.652;23.332;2022-11-23T11:03:50;12.63;;;5.80;;
23175;SDS011;19910;42.652;23.332;2022-11-23T11:06:24;7.20;;;4.32;;
23175;SDS011;19910;42.652;23.332;2022-11-23T11:08:54;7.63;;;4.82;;
23175;SDS011;19910;42.652;23.332;2022-11-23T11:11:23;8.68;;;5.68;;
23175;SDS011;19910;42.652;23.332;2022-11-23T11:13:59;5.72;;;3.53;;
23175;SDS011;19910;42.652;23.332;2022-11-23T11:16:29;6.10;;;4.00;;
23175;SDS011;19910;42.652;23.332;2022-11-23T11:18:57;5.57;;;3.60;;
23175;SDS011;19910;42.652;23.332;2022-11-23T11:21:28;7.07;;;4.13;;
23175;SDS011;19910;42.652;23.332;2022-11-23T11:23:58;8.85;;;3.22;;
23175;SDS011;19910;42.652;23.332;2022-11-23T11:26:28;4.25;;;2.65;;
23175;SDS011;19910;42.652;23.332;2022-11-23T11:28:57;1.27;;;1.00;;
23175;SDS011;19910;42.652;23.332;2022-11-23T11:31:34;5.07;;;2.85;;
23175;SDS011;19910;42.652;23.332;2022-11-23T11:34:17;10.63;;;4.93;;
23175;SDS011;19910;42.652;23.332;2022-11-23T11:36:55;5.68;;;3.83;;
23175;SDS011;19910;42.652;23.332;2022-11-23T11:39:27;11.10;;;2.95;;
23175;SDS011;19910;42.652;23.332;2022-11-23T11:41:59;5.38;;;3.58;;
23175;SDS011;19910;42.652;23.332;2022-11-23T11:44:31;2.28;;;1.80;;
23175;SDS011;19910;42.652;23.332;2022-11-23T11:47:05;7.43;;;3.72;;
23175;SDS011;19910;42.652;23.332;2022-11-23T11:49:42;5.25;;;2.65;;
23175;SDS011;19910;42.652;23.332;2022-11-23T11:52:16;5.20;;;2.20;;
23175;SDS011;19910;42.652;23.332;2022-11-23T11:55:03;5.03;;;2.58;;
23175;SDS011;19910;42.652;23.332;2022-11-23T11:57:38;3.15;;;2.45;;
23175;SDS011;19910;42.652;23.332;2022-11-23T12:00:11;5.35;;;2.67;;
23175;SDS011;19910;42.652;23.332;2022-11-23T12:02:42;2.83;;;1.67;;
23175;SDS011;19910;42.652;23.332;2022-11-23T12:05:24;3.22;;;1.70;;
23175;SDS011;19910;42.652;23.332;2022-11-23T12:07:56;5.22;;;2.90;;
23175;SDS011;19910;42.652;23.332;2022-11-23T12:10:28;2.88;;;2.10;;
23175;SDS011;19910;42.652;23.332;2022-11-23T12:13:00;3.47;;;2.20;;
23175;SDS011;19910;42.652;23.332;2022-11-23T12:15:27;3.08;;;1.80;;
23175;SDS011;19910;42.652;23.332;2022-11-23T12:18:10;2.60;;;1.05;;
23175;SDS011;19910;42.652;23.332;2022-11-23T12:20:48;2.70;;;1.55;;
23175;SDS011;19910;42.652;23.332;2022-11-23T12:23:25;4.35;;;1.70;;
23175;SDS011;19910;42.652;23.332;2022-11-23T12:26:13;4.75;;;1.98;;
23175;SDS011;19910;42.652;23.332;2022-11-23T12:28:51;1.60;;;1.05;;
23175;SDS011;19910;42.652;23.332;2022-11-23T12:31:38;2.20;;;1.20;;
23175;SDS011;19910;42.652;23.332;2022-11-23T12:34:13;3.35;;;1.48;;
23175;SDS011;19910;42.652;23.332;2022-11-23T12:36:54;1.95;;;1.30;;
23175;SDS011;19910;42.652;23.332;2022-11-23T12:39:46;2.45;;;1.10;;
23175;SDS011;19910;42.652;23.332;2022-11-23T12:42:25;5.32;;;1.63;;
23175;SDS011;19910;42.652;23.332;2022-11-23T12:45:10;7.03;;;1.42;;
23175;SDS011;19910;42.652;23.332;2022-11-23T12:47:48;2.22;;;1.20;;
23175;SDS011;19910;42.652;23.332;2022-11-23T12:50:26;4.60;;;1.30;;
23175;SDS011;19910;42.652;23.332;2022-11-23T12:53:05;1.77;;;1.27;;
23175;SDS011;19910;42.652;23.332;2022-11-23T12:55:50;2.40;;;1.83;;
23175;SDS011;19910;42.652;23.332;2022-11-23T12:58:24;2.15;;;1.50;;
23175;SDS011;19910;42.652;23.332;2022-11-23T13:00:54;2.63;;;1.27;;
23175;SDS011;19910;42.652;23.332;2022-11-23T13:03:32;4.22;;;1.42;;
23175;SDS011;19910;42.652;23.332;2022-11-23T13:09:29;1.92;;;1.15;;
23175;SDS011;19910;42.652;23.332;2022-11-23T13:12:19;3.67;;;1.20;;
23175;SDS011;19910;42.652;23.332;2022-11-23T13:15:02;2.95;;;1.20;;
23175;SDS011;19910;42.652;23.332;2022-11-23T13:17:45;2.17;;;1.20;;
23175;SDS011;19910;42.652;23.332;2022-11-23T13:20:25;2.47;;;1.08;;
23175;SDS011;19910;42.652;23.332;2022-11-23T13:23:06;3.83;;;1.10;;
23175;SDS011;19910;42.652;23.332;2022-11-23T13:25:33;3.88;;;1.27;;
23175;SDS011;19910;42.652;23.332;2022-11-23T13:28:02;4.97;;;1.20;;
23175;SDS011;19910;42.652;23.332;2022-11-23T13:30:34;4.13;;;1.30;;
23175;SDS011;19910;42.652;23.332;2022-11-23T13:35:55;1.00;;;0.93;;
23175;SDS011;19910;42.652;23.332;2022-11-23T13:38:35;1.88;;;0.88;;
23175;SDS011;19910;42.652;23.332;2022-11-23T13:44:26;2.45;;;2.08;;
23175;SDS011;19910;42.652;23.332;2022-11-23T13:49:46;2.92;;;1.40;;
23175;SDS011;19910;42.652;23.332;2022-11-23T13:52:27;2.72;;;1.30;;
23175;SDS011;19910;42.652;23.332;2022-11-23T13:55:16;2.83;;;1.80;;
23175;SDS011;19910;42.652;23.332;2022-11-23T13:57:45;3.40;;;1.40;;
23175;SDS011;19910;42.652;23.332;2022-11-23T14:00:52;3.70;;;1.67;;
23175;SDS011;19910;42.652;23.332;2022-11-23T14:06:39;1.92;;;1.30;;
23175;SDS011;19910;42.652;23.332;2022-11-23T14:09:12;5.60;;;1.33;;
23175;SDS011;19910;42.652;23.332;2022-11-23T14:11:49;2.50;;;1.20;;
23175;SDS011;19910;42.652;23.332;2022-11-23T14:14:22;2.15;;;1.10;;
23175;SDS011;19910;42.652;23.332;2022-11-23T14:17:03;2.05;;;1.50;;
23175;SDS011;19910;42.652;23.332;2022-11-23T14:19:49;10.38;;;5.88;;
23175;SDS011;19910;42.652;23.332;2022-11-23T14:22:37;15.35;;;8.20;;
23175;SDS011;19910;42.652;23.332;2022-11-23T14:25:15;11.27;;;5.22;;
23175;SDS011;19910;42.652;23.332;2022-11-23T14:27:54;2.55;;;1.75;;
23175;SDS011;19910;42.652;23.332;2022-11-23T14:30:43;4.65;;;1.80;;
23175;SDS011;19910;42.652;23.332;2022-11-23T14:33:24;2.80;;;1.60;;
23175;SDS011;19910;42.652;23.332;2022-11-23T14:36:02;2.40;;;1.48;;
23175;SDS011;19910;42.652;23.332;2022-11-23T14:38:44;3.55;;;1.88;;
23175;SDS011;19910;42.652;23.332;2022-11-23T14:41:29;8.93;;;1.83;;
23175;SDS011;19910;42.652;23.332;2022-11-23T14:44:00;5.03;;;2.22;;
23175;SDS011;19910;42.652;23.332;2022-11-23T14:46:28;7.25;;;2.35;;
23175;SDS011;19910;42.652;23.332;2022-11-23T14:49:03;7.32;;;2.33;;
23175;SDS011;19910;42.652;23.332;2022-11-23T14:51:31;4.50;;;1.88;;
23175;SDS011;19910;42.652;23.332;2022-11-23T14:53:59;2.95;;;1.60;;
23175;SDS011;19910;42.652;23.332;2022-11-23T14:56:32;3.20;;;1.58;;
23175;SDS011;19910;42.652;23.332;2022-11-23T14:59:02;4.55;;;1.77;;
23175;SDS011;19910;42.652;23.332;2022-11-23T15:01:31;3.58;;;1.73;;
23175;SDS011;19910;42.652;23.332;2022-11-23T15:03:59;4.00;;;1.58;;
23175;SDS011;19910;42.652;23.332;2022-11-23T15:06:35;1.27;;;1.05;;